sensor_id;sensor_type;location;lat;lon;timestamp;P1;durP1;ratioP1;P2;durP2;ratioP2
77359;SDS011;66426;51.454;7.266;2023-04-15T00:00:01;8.45;;;4.53;;
77359;SDS011;66426;51.454;7.266;2023-04-15T00:01:02;8.63;;;4.22;;
77359;SDS011;66426;51.454;7.266;2023-04-15T00:02:12;6.65;;;4.22;;
77359;SDS011;66426;51.454;7.266;2023-04-15T00:03:14;8.30;;;4.95;;
77359;SDS011;66426;51.454;7.266;2023-04-15T00:04:15;8.00;;;4.30;;
77359;SDS011;66426;51.454;7.266;2023-04-15T00:05:16;6.25;;;4.30;;
77359;SDS011;66426;51.454;7.266;2023-04-15T00:06:18;10.82;;;4.45;;
77359;SDS011;66426;51.454;7.266;2023-04-15T00:07:19;7.88;;;4.07;;
77359;SDS011;66426;51.454;7.266;2023-04-15T00:08:20;7.40;;;3.92;;
77359;SDS011;66426;51.454;7.266;2023-04-15T00:09:21;9.00;;;4.63;;
77359;SDS011;66426;51.454;7.266;2023-04-15T00:10:22;9.02;;;4.20;;
77359;SDS011;66426;51.454;7.266;2023-04-15T00:11:23;7.00;;;4.22;;
77359;SDS011;66426;51.454;7.266;2023-04-15T00:12:24;9.88;;;4.35;;
77359;SDS011;66426;51.454;7.266;2023-04-15T00:13:26;7.60;;;4.18;;
77359;SDS011;66426;51.454;7.266;2023-04-15T00:14:27;10.55;;;4.90;;
77359;SDS011;66426;51.454;7.266;2023-04-15T00:15:28;8.43;;;4.25;;
77359;SDS011;66426;51.454;7.266;2023-04-15T00:16:29;7.20;;;4.15;;
77359;SDS011;66426;51.454;7.266;2023-04-15T00:17:30;7.47;;;4.20;;
77359;SDS011;66426;51.454;7.266;2023-04-15T00:18:31;8.20;;;4.28;;
77359;SDS011;66426;51.454;7.266;2023-04-15T00:19:32;10.20;;;4.32;;
77359;SDS011;66426;51.454;7.266;2023-04-15T00:20:33;8.60;;;4.60;;
77359;SDS011;66426;51.454;7.266;2023-04-15T00:21:36;6.13;;;4.53;;
77359;SDS011;66426;51.454;7.266;2023-04-15T00:22:37;8.73;;;4.45;;
77359;SDS011;66426;51.454;7.266;2023-04-15T00:23:37;7.85;;;3.95;;
77359;SDS011;66426;51.454;7.266;2023-04-15T00:24:38;7.50;;;4.57;;
77359;SDS011;66426;51.454;7.266;2023-04-15T00:25:39;7.43;;;4.43;;
77359;SDS011;66426;51.454;7.266;2023-04-15T00:26:40;9.07;;;4.32;;
77359;SDS011;66426;51.454;7.266;2023-04-15T00:27:41;8.80;;;4.38;;
77359;SDS011;66426;51.454;7.266;2023-04-15T00:28:43;8.70;;;4.35;;
77359;SDS011;66426;51.454;7.266;2023-04-15T00:29:44;6.13;;;3.85;;
77359;SDS011;66426;51.454;7.266;2023-04-15T00:30:44;8.48;;;4.30;;
77359;SDS011;66426;51.454;7.266;2023-04-15T00:31:45;6.47;;;4.05;;
77359;SDS011;66426;51.454;7.266;2023-04-15T00:32:46;7.07;;;3.83;;
77359;SDS011;66426;51.454;7.266;2023-04-15T00:33:48;8.73;;;4.80;;
77359;SDS011;66426;51.454;7.266;2023-04-15T00:34:49;9.85;;;4.68;;
77359;SDS011;66426;51.454;7.266;2023-04-15T00:35:50;5.85;;;4.07;;
77359;SDS011;66426;51.454;7.266;2023-04-15T00:36:52;8.00;;;4.65;;
77359;SDS011;66426;51.454;7.266;2023-04-15T00:37:53;7.95;;;4.68;;
77359;SDS011;66426;51.454;7.266;2023-04-15T00:38:54;7.47;;;4.55;;
77359;SDS011;66426;51.454;7.266;2023-04-15T00:39:54;9.35;;;4.70;;
77359;SDS011;66426;51.454;7.266;2023-04-15T00:40:56;10.02;;;4.93;;
77359;SDS011;66426;51.454;7.266;2023-04-15T00:41:57;9.85;;;5.00;;
77359;SDS011;66426;51.454;7.266;2023-04-15T00:42:58;8.55;;;5.10;;
77359;SDS011;66426;51.454;7.266;2023-04-15T00:43:59;13.40;;;5.40;;
77359;SDS011;66426;51.454;7.266;2023-04-15T00:45:01;8.85;;;4.78;;
77359;SDS011;66426;51.454;7.266;2023-04-15T00:46:03;11.60;;;5.45;;
77359;SDS011;66426;51.454;7.266;2023-04-15T00:47:04;9.52;;;5.35;;
77359;SDS011;66426;51.454;7.266;2023-04-15T00:48:05;9.73;;;5.10;;
77359;SDS011;66426;51.454;7.266;2023-04-15T00:49:06;10.93;;;5.70;;
77359;SDS011;66426;51.454;7.266;2023-04-15T00:50:07;8.40;;;5.28;;
77359;SDS011;66426;51.454;7.266;2023-04-15T00:51:09;9.98;;;5.35;;
77359;SDS011;66426;51.454;7.266;2023-04-15T00:52:11;9.65;;;4.97;;
77359;SDS011;66426;51.454;7.266;2023-04-15T00:53:12;10.98;;;5.47;;
77359;SDS011;66426;51.454;7.266;2023-04-15T00:54:13;9.32;;;5.22;;
77359;SDS011;66426;51.454;7.266;2023-04-15T00:55:15;8.40;;;5.22;;
77359;SDS011;66426;51.454;7.266;2023-04-15T00:56:16;8.82;;;5.40;;
77359;SDS011;66426;51.454;7.266;2023-04-15T00:57:19;9.32;;;5.57;;
77359;SDS011;66426;51.454;7.266;2023-04-15T00:58:21;10.57;;;5.43;;
77359;SDS011;66426;51.454;7.266;2023-04-15T00:59:22;11.27;;;5.40;;
77359;SDS011;66426;51.454;7.266;2023-04-15T01:00:23;8.38;;;5.15;;
77359;SDS011;66426;51.454;7.266;2023-04-15T01:01:24;10.88;;;6.28;;
77359;SDS011;66426;51.454;7.266;2023-04-15T01:02:25;13.05;;;5.20;;
77359;SDS011;66426;51.454;7.266;2023-04-15T01:03:26;9.50;;;6.05;;
77359;SDS011;66426;51.454;7.266;2023-04-15T01:04:29;10.30;;;5.35;;
77359;SDS011;66426;51.454;7.266;2023-04-15T01:05:31;10.43;;;5.32;;
77359;SDS011;66426;51.454;7.266;2023-04-15T01:06:33;9.80;;;5.75;;
77359;SDS011;66426;51.454;7.266;2023-04-15T01:07:35;8.70;;;4.97;;
77359;SDS011;66426;51.454;7.266;2023-04-15T01:08:36;10.23;;;5.85;;
77359;SDS011;66426;51.454;7.266;2023-04-15T01:09:37;10.18;;;5.63;;
77359;SDS011;66426;51.454;7.266;2023-04-15T01:10:38;10.65;;;5.80;;
77359;SDS011;66426;51.454;7.266;2023-04-15T01:11:38;13.18;;;5.38;;
77359;SDS011;66426;51.454;7.266;2023-04-15T01:12:39;9.63;;;5.05;;
77359;SDS011;66426;51.454;7.266;2023-04-15T01:13:40;11.98;;;5.20;;
77359;SDS011;66426;51.454;7.266;2023-04-15T01:14:41;8.82;;;5.53;;
77359;SDS011;66426;51.454;7.266;2023-04-15T01:15:43;15.25;;;5.45;;
77359;SDS011;66426;51.454;7.266;2023-04-15T01:16:44;10.63;;;5.82;;
77359;SDS011;66426;51.454;7.266;2023-04-15T01:17:46;10.35;;;5.32;;
77359;SDS011;66426;51.454;7.266;2023-04-15T01:18:47;11.00;;;5.40;;
77359;SDS011;66426;51.454;7.266;2023-04-15T01:19:48;10.68;;;6.00;;
77359;SDS011;66426;51.454;7.266;2023-04-15T01:20:50;7.95;;;5.45;;
77359;SDS011;66426;51.454;7.266;2023-04-15T01:21:51;10.18;;;5.18;;
77359;SDS011;66426;51.454;7.266;2023-04-15T01:22:54;13.18;;;5.53;;
77359;SDS011;66426;51.454;7.266;2023-04-15T01:23:55;11.82;;;5.60;;
77359;SDS011;66426;51.454;7.266;2023-04-15T01:24:59;11.63;;;6.03;;
77359;SDS011;66426;51.454;7.266;2023-04-15T01:26:06;9.38;;;5.72;;
77359;SDS011;66426;51.454;7.266;2023-04-15T01:27:11;9.70;;;5.63;;
77359;SDS011;66426;51.454;7.266;2023-04-15T01:28:12;9.10;;;5.47;;
77359;SDS011;66426;51.454;7.266;2023-04-15T01:29:12;14.70;;;5.63;;
77359;SDS011;66426;51.454;7.266;2023-04-15T01:30:14;9.77;;;5.43;;
77359;SDS011;66426;51.454;7.266;2023-04-15T01:31:15;11.93;;;5.53;;
77359;SDS011;66426;51.454;7.266;2023-04-15T01:32:16;12.13;;;5.65;;
77359;SDS011;66426;51.454;7.266;2023-04-15T01:33:17;9.77;;;5.53;;
77359;SDS011;66426;51.454;7.266;2023-04-15T01:34:18;9.90;;;5.40;;
77359;SDS011;66426;51.454;7.266;2023-04-15T01:35:19;10.20;;;5.53;;
77359;SDS011;66426;51.454;7.266;2023-04-15T01:36:20;9.70;;;5.40;;
77359;SDS011;66426;51.454;7.266;2023-04-15T01:37:21;10.30;;;5.18;;
77359;SDS011;66426;51.454;7.266;2023-04-15T01:38:22;8.27;;;5.13;;
77359;SDS011;66426;51.454;7.266;2023-04-15T01:39:23;13.85;;;6.03;;
77359;SDS011;66426;51.454;7.266;2023-04-15T01:40:24;10.20;;;5.32;;
77359;SDS011;66426;51.454;7.266;2023-04-15T01:41:27;13.45;;;5.97;;
77359;SDS011;66426;51.454;7.266;2023-04-15T01:42:29;9.38;;;5.25;;
77359;SDS011;66426;51.454;7.266;2023-04-15T01:43:30;10.27;;;5.40;;
77359;SDS011;66426;51.454;7.266;2023-04-15T01:44:30;9.63;;;5.40;;
77359;SDS011;66426;51.454;7.266;2023-04-15T01:45:31;9.93;;;5.22;;
77359;SDS011;66426;51.454;7.266;2023-04-15T01:46:32;10.40;;;5.85;;
77359;SDS011;66426;51.454;7.266;2023-04-15T01:47:32;11.02;;;5.70;;
77359;SDS011;66426;51.454;7.266;2023-04-15T01:48:33;8.60;;;4.97;;
77359;SDS011;66426;51.454;7.266;2023-04-15T01:49:34;10.32;;;5.50;;
77359;SDS011;66426;51.454;7.266;2023-04-15T01:50:35;8.60;;;5.57;;
77359;SDS011;66426;51.454;7.266;2023-04-15T01:51:37;7.38;;;4.65;;
77359;SDS011;66426;51.454;7.266;2023-04-15T01:52:38;9.50;;;5.45;;
77359;SDS011;66426;51.454;7.266;2023-04-15T01:53:39;8.65;;;5.50;;
77359;SDS011;66426;51.454;7.266;2023-04-15T01:54:39;11.27;;;5.90;;
77359;SDS011;66426;51.454;7.266;2023-04-15T01:55:40;13.05;;;5.65;;
77359;SDS011;66426;51.454;7.266;2023-04-15T01:56:43;11.25;;;5.18;;
77359;SDS011;66426;51.454;7.266;2023-04-15T01:57:43;12.88;;;5.32;;
77359;SDS011;66426;51.454;7.266;2023-04-15T01:58:46;9.60;;;5.20;;
77359;SDS011;66426;51.454;7.266;2023-04-15T01:59:47;9.55;;;5.18;;
77359;SDS011;66426;51.454;7.266;2023-04-15T02:00:48;7.82;;;4.90;;
77359;SDS011;66426;51.454;7.266;2023-04-15T02:01:49;7.95;;;4.93;;
77359;SDS011;66426;51.454;7.266;2023-04-15T02:02:50;12.85;;;5.40;;
77359;SDS011;66426;51.454;7.266;2023-04-15T02:03:51;9.38;;;5.50;;
77359;SDS011;66426;51.454;7.266;2023-04-15T02:04:53;10.52;;;5.47;;
77359;SDS011;66426;51.454;7.266;2023-04-15T02:05:54;11.07;;;5.50;;
77359;SDS011;66426;51.454;7.266;2023-04-15T02:06:55;9.60;;;5.50;;
77359;SDS011;66426;51.454;7.266;2023-04-15T02:07:56;15.02;;;5.65;;
77359;SDS011;66426;51.454;7.266;2023-04-15T02:08:57;10.70;;;5.63;;
77359;SDS011;66426;51.454;7.266;2023-04-15T02:09:58;8.38;;;5.20;;
77359;SDS011;66426;51.454;7.266;2023-04-15T02:10:59;9.15;;;5.47;;
77359;SDS011;66426;51.454;7.266;2023-04-15T02:12:02;8.18;;;4.85;;
77359;SDS011;66426;51.454;7.266;2023-04-15T02:13:03;10.25;;;5.68;;
77359;SDS011;66426;51.454;7.266;2023-04-15T02:14:04;10.65;;;5.10;;
77359;SDS011;66426;51.454;7.266;2023-04-15T02:15:06;8.82;;;5.45;;
77359;SDS011;66426;51.454;7.266;2023-04-15T02:16:14;9.43;;;5.35;;
77359;SDS011;66426;51.454;7.266;2023-04-15T02:17:16;10.18;;;5.40;;
77359;SDS011;66426;51.454;7.266;2023-04-15T02:18:17;9.35;;;5.75;;
77359;SDS011;66426;51.454;7.266;2023-04-15T02:19:18;9.13;;;5.28;;
77359;SDS011;66426;51.454;7.266;2023-04-15T02:20:19;9.57;;;5.57;;
77359;SDS011;66426;51.454;7.266;2023-04-15T02:21:20;7.88;;;5.20;;
77359;SDS011;66426;51.454;7.266;2023-04-15T02:22:22;12.77;;;5.40;;
77359;SDS011;66426;51.454;7.266;2023-04-15T02:23:22;9.50;;;5.50;;
77359;SDS011;66426;51.454;7.266;2023-04-15T02:24:23;8.77;;;5.13;;
77359;SDS011;66426;51.454;7.266;2023-04-15T02:25:24;8.02;;;5.18;;
77359;SDS011;66426;51.454;7.266;2023-04-15T02:26:25;10.05;;;5.97;;
77359;SDS011;66426;51.454;7.266;2023-04-15T02:27:27;8.90;;;5.32;;
77359;SDS011;66426;51.454;7.266;2023-04-15T02:28:28;12.30;;;6.30;;
77359;SDS011;66426;51.454;7.266;2023-04-15T02:29:30;10.50;;;5.68;;
77359;SDS011;66426;51.454;7.266;2023-04-15T02:30:31;10.57;;;5.57;;
77359;SDS011;66426;51.454;7.266;2023-04-15T02:31:32;7.95;;;5.18;;
77359;SDS011;66426;51.454;7.266;2023-04-15T02:32:36;8.52;;;4.78;;
77359;SDS011;66426;51.454;7.266;2023-04-15T02:33:37;9.68;;;5.45;;
77359;SDS011;66426;51.454;7.266;2023-04-15T02:34:38;9.32;;;5.45;;
77359;SDS011;66426;51.454;7.266;2023-04-15T02:35:42;15.38;;;6.30;;
77359;SDS011;66426;51.454;7.266;2023-04-15T02:36:44;12.57;;;6.03;;
77359;SDS011;66426;51.454;7.266;2023-04-15T02:37:47;8.35;;;5.10;;
77359;SDS011;66426;51.454;7.266;2023-04-15T02:38:48;10.25;;;5.63;;
77359;SDS011;66426;51.454;7.266;2023-04-15T02:39:49;9.70;;;6.10;;
77359;SDS011;66426;51.454;7.266;2023-04-15T02:40:50;11.50;;;5.60;;
77359;SDS011;66426;51.454;7.266;2023-04-15T02:41:51;10.32;;;6.15;;
77359;SDS011;66426;51.454;7.266;2023-04-15T02:42:53;11.00;;;5.72;;
77359;SDS011;66426;51.454;7.266;2023-04-15T02:43:53;10.30;;;5.72;;
77359;SDS011;66426;51.454;7.266;2023-04-15T02:44:54;10.60;;;5.78;;
77359;SDS011;66426;51.454;7.266;2023-04-15T02:45:55;10.32;;;5.43;;
77359;SDS011;66426;51.454;7.266;2023-04-15T02:46:56;12.05;;;5.93;;
77359;SDS011;66426;51.454;7.266;2023-04-15T02:47:58;10.55;;;5.53;;
77359;SDS011;66426;51.454;7.266;2023-04-15T02:49:00;9.55;;;5.32;;
77359;SDS011;66426;51.454;7.266;2023-04-15T02:50:03;10.07;;;5.72;;
77359;SDS011;66426;51.454;7.266;2023-04-15T02:51:11;11.23;;;5.75;;
77359;SDS011;66426;51.454;7.266;2023-04-15T02:52:16;9.52;;;5.68;;
77359;SDS011;66426;51.454;7.266;2023-04-15T02:53:17;10.10;;;6.03;;
77359;SDS011;66426;51.454;7.266;2023-04-15T02:54:19;9.40;;;5.35;;
77359;SDS011;66426;51.454;7.266;2023-04-15T02:55:22;10.13;;;5.93;;
77359;SDS011;66426;51.454;7.266;2023-04-15T02:56:23;12.13;;;5.53;;
77359;SDS011;66426;51.454;7.266;2023-04-15T02:57:23;13.27;;;5.60;;
77359;SDS011;66426;51.454;7.266;2023-04-15T02:58:26;9.57;;;5.63;;
77359;SDS011;66426;51.454;7.266;2023-04-15T02:59:27;11.20;;;5.70;;
77359;SDS011;66426;51.454;7.266;2023-04-15T03:00:28;9.60;;;5.75;;
77359;SDS011;66426;51.454;7.266;2023-04-15T03:01:29;10.82;;;5.97;;
77359;SDS011;66426;51.454;7.266;2023-04-15T03:02:32;11.32;;;5.32;;
77359;SDS011;66426;51.454;7.266;2023-04-15T03:03:33;12.63;;;6.82;;
77359;SDS011;66426;51.454;7.266;2023-04-15T03:04:34;9.75;;;6.03;;
77359;SDS011;66426;51.454;7.266;2023-04-15T03:05:35;9.20;;;5.70;;
77359;SDS011;66426;51.454;7.266;2023-04-15T03:06:38;9.30;;;5.75;;
77359;SDS011;66426;51.454;7.266;2023-04-15T03:07:39;11.27;;;5.97;;
77359;SDS011;66426;51.454;7.266;2023-04-15T03:08:40;8.93;;;5.55;;
77359;SDS011;66426;51.454;7.266;2023-04-15T03:09:41;10.88;;;5.80;;
77359;SDS011;66426;51.454;7.266;2023-04-15T03:10:42;11.38;;;6.25;;
77359;SDS011;66426;51.454;7.266;2023-04-15T03:11:44;10.57;;;6.03;;
77359;SDS011;66426;51.454;7.266;2023-04-15T03:12:44;9.45;;;6.30;;
77359;SDS011;66426;51.454;7.266;2023-04-15T03:13:47;13.05;;;6.40;;
77359;SDS011;66426;51.454;7.266;2023-04-15T03:14:47;11.52;;;5.40;;
77359;SDS011;66426;51.454;7.266;2023-04-15T03:15:48;9.50;;;6.15;;
77359;SDS011;66426;51.454;7.266;2023-04-15T03:16:49;9.13;;;5.60;;
77359;SDS011;66426;51.454;7.266;2023-04-15T03:17:51;9.45;;;5.70;;
77359;SDS011;66426;51.454;7.266;2023-04-15T03:18:52;10.55;;;5.90;;
77359;SDS011;66426;51.454;7.266;2023-04-15T03:19:53;10.50;;;5.82;;
77359;SDS011;66426;51.454;7.266;2023-04-15T03:20:53;10.40;;;5.40;;
77359;SDS011;66426;51.454;7.266;2023-04-15T03:21:54;10.80;;;6.03;;
77359;SDS011;66426;51.454;7.266;2023-04-15T03:22:55;9.15;;;6.07;;
77359;SDS011;66426;51.454;7.266;2023-04-15T03:23:56;10.10;;;5.80;;
77359;SDS011;66426;51.454;7.266;2023-04-15T03:24:57;10.60;;;6.05;;
77359;SDS011;66426;51.454;7.266;2023-04-15T03:26:00;12.38;;;6.20;;
77359;SDS011;66426;51.454;7.266;2023-04-15T03:27:01;11.63;;;6.05;;
77359;SDS011;66426;51.454;7.266;2023-04-15T03:28:02;10.13;;;5.88;;
77359;SDS011;66426;51.454;7.266;2023-04-15T03:29:05;11.82;;;6.10;;
77359;SDS011;66426;51.454;7.266;2023-04-15T03:30:07;10.93;;;6.22;;
77359;SDS011;66426;51.454;7.266;2023-04-15T03:31:09;8.63;;;5.90;;
77359;SDS011;66426;51.454;7.266;2023-04-15T03:32:10;11.15;;;6.50;;
77359;SDS011;66426;51.454;7.266;2023-04-15T03:33:12;12.93;;;6.43;;
77359;SDS011;66426;51.454;7.266;2023-04-15T03:34:13;10.75;;;5.93;;
77359;SDS011;66426;51.454;7.266;2023-04-15T03:35:14;10.75;;;5.75;;
77359;SDS011;66426;51.454;7.266;2023-04-15T03:36:15;11.13;;;6.13;;
77359;SDS011;66426;51.454;7.266;2023-04-15T03:37:16;12.63;;;6.78;;
77359;SDS011;66426;51.454;7.266;2023-04-15T03:38:16;10.88;;;6.22;;
77359;SDS011;66426;51.454;7.266;2023-04-15T03:39:18;9.80;;;5.85;;
77359;SDS011;66426;51.454;7.266;2023-04-15T03:40:19;13.30;;;6.00;;
77359;SDS011;66426;51.454;7.266;2023-04-15T03:41:20;8.98;;;5.93;;
77359;SDS011;66426;51.454;7.266;2023-04-15T03:42:21;9.63;;;5.95;;
77359;SDS011;66426;51.454;7.266;2023-04-15T03:43:22;11.50;;;6.13;;
77359;SDS011;66426;51.454;7.266;2023-04-15T03:44:25;18.33;;;6.57;;
77359;SDS011;66426;51.454;7.266;2023-04-15T03:45:26;13.85;;;5.93;;
77359;SDS011;66426;51.454;7.266;2023-04-15T03:46:27;12.77;;;6.30;;
77359;SDS011;66426;51.454;7.266;2023-04-15T03:47:28;11.57;;;6.50;;
77359;SDS011;66426;51.454;7.266;2023-04-15T03:48:29;10.15;;;5.78;;
77359;SDS011;66426;51.454;7.266;2023-04-15T03:49:30;9.75;;;6.13;;
77359;SDS011;66426;51.454;7.266;2023-04-15T03:50:32;9.80;;;6.22;;
77359;SDS011;66426;51.454;7.266;2023-04-15T03:51:33;10.63;;;6.25;;
77359;SDS011;66426;51.454;7.266;2023-04-15T03:52:34;11.50;;;5.78;;
77359;SDS011;66426;51.454;7.266;2023-04-15T03:53:34;12.57;;;6.15;;
77359;SDS011;66426;51.454;7.266;2023-04-15T03:54:35;12.63;;;6.10;;
77359;SDS011;66426;51.454;7.266;2023-04-15T03:55:36;11.63;;;5.55;;
77359;SDS011;66426;51.454;7.266;2023-04-15T03:56:37;9.95;;;6.22;;
77359;SDS011;66426;51.454;7.266;2023-04-15T03:57:38;12.70;;;6.40;;
77359;SDS011;66426;51.454;7.266;2023-04-15T03:58:39;10.82;;;5.78;;
77359;SDS011;66426;51.454;7.266;2023-04-15T03:59:41;9.98;;;5.90;;
77359;SDS011;66426;51.454;7.266;2023-04-15T04:00:42;11.80;;;6.38;;
77359;SDS011;66426;51.454;7.266;2023-04-15T04:01:42;11.25;;;6.25;;
77359;SDS011;66426;51.454;7.266;2023-04-15T04:02:43;10.82;;;5.60;;
77359;SDS011;66426;51.454;7.266;2023-04-15T04:03:45;9.32;;;5.65;;
77359;SDS011;66426;51.454;7.266;2023-04-15T04:04:46;9.45;;;5.80;;
77359;SDS011;66426;51.454;7.266;2023-04-15T04:05:47;9.50;;;6.22;;
77359;SDS011;66426;51.454;7.266;2023-04-15T04:06:48;9.43;;;5.68;;
77359;SDS011;66426;51.454;7.266;2023-04-15T04:07:49;10.27;;;5.70;;
77359;SDS011;66426;51.454;7.266;2023-04-15T04:08:50;10.48;;;5.97;;
77359;SDS011;66426;51.454;7.266;2023-04-15T04:09:50;10.15;;;6.13;;
77359;SDS011;66426;51.454;7.266;2023-04-15T04:10:51;10.38;;;5.75;;
77359;SDS011;66426;51.454;7.266;2023-04-15T04:11:52;11.07;;;6.50;;
77359;SDS011;66426;51.454;7.266;2023-04-15T04:12:53;10.05;;;5.82;;
77359;SDS011;66426;51.454;7.266;2023-04-15T04:13:54;11.10;;;6.07;;
77359;SDS011;66426;51.454;7.266;2023-04-15T04:14:56;13.15;;;6.28;;
77359;SDS011;66426;51.454;7.266;2023-04-15T04:15:57;10.50;;;5.97;;
77359;SDS011;66426;51.454;7.266;2023-04-15T04:16:58;10.93;;;5.97;;
77359;SDS011;66426;51.454;7.266;2023-04-15T04:17:59;8.82;;;5.35;;
77359;SDS011;66426;51.454;7.266;2023-04-15T04:19:00;10.57;;;5.85;;
77359;SDS011;66426;51.454;7.266;2023-04-15T04:20:00;9.57;;;6.00;;
77359;SDS011;66426;51.454;7.266;2023-04-15T04:21:01;10.95;;;6.28;;
77359;SDS011;66426;51.454;7.266;2023-04-15T04:22:02;9.02;;;5.78;;
77359;SDS011;66426;51.454;7.266;2023-04-15T04:23:03;10.60;;;5.75;;
77359;SDS011;66426;51.454;7.266;2023-04-15T04:24:04;10.90;;;5.55;;
77359;SDS011;66426;51.454;7.266;2023-04-15T04:25:06;10.82;;;6.03;;
77359;SDS011;66426;51.454;7.266;2023-04-15T04:26:08;13.15;;;5.90;;
77359;SDS011;66426;51.454;7.266;2023-04-15T04:27:09;9.05;;;5.93;;
77359;SDS011;66426;51.454;7.266;2023-04-15T04:28:10;11.18;;;6.65;;
77359;SDS011;66426;51.454;7.266;2023-04-15T04:29:11;9.85;;;6.00;;
77359;SDS011;66426;51.454;7.266;2023-04-15T04:30:13;11.23;;;6.20;;
77359;SDS011;66426;51.454;7.266;2023-04-15T04:31:14;10.30;;;6.03;;
77359;SDS011;66426;51.454;7.266;2023-04-15T04:32:14;9.85;;;6.03;;
77359;SDS011;66426;51.454;7.266;2023-04-15T04:33:15;11.48;;;6.18;;
77359;SDS011;66426;51.454;7.266;2023-04-15T04:34:16;9.30;;;6.20;;
77359;SDS011;66426;51.454;7.266;2023-04-15T04:35:17;11.50;;;6.05;;
77359;SDS011;66426;51.454;7.266;2023-04-15T04:36:18;10.13;;;5.93;;
77359;SDS011;66426;51.454;7.266;2023-04-15T04:37:19;11.57;;;6.32;;
77359;SDS011;66426;51.454;7.266;2023-04-15T04:38:19;14.98;;;6.07;;
77359;SDS011;66426;51.454;7.266;2023-04-15T04:39:20;10.18;;;5.70;;
77359;SDS011;66426;51.454;7.266;2023-04-15T04:40:21;10.55;;;5.80;;
77359;SDS011;66426;51.454;7.266;2023-04-15T04:41:22;10.98;;;5.82;;
77359;SDS011;66426;51.454;7.266;2023-04-15T04:42:23;10.80;;;5.85;;
77359;SDS011;66426;51.454;7.266;2023-04-15T04:43:24;12.35;;;5.90;;
77359;SDS011;66426;51.454;7.266;2023-04-15T04:44:26;8.35;;;5.40;;
77359;SDS011;66426;51.454;7.266;2023-04-15T04:45:29;11.60;;;5.57;;
77359;SDS011;66426;51.454;7.266;2023-04-15T04:46:30;11.48;;;5.93;;
77359;SDS011;66426;51.454;7.266;2023-04-15T04:47:30;7.68;;;5.30;;
77359;SDS011;66426;51.454;7.266;2023-04-15T04:48:31;8.05;;;5.72;;
77359;SDS011;66426;51.454;7.266;2023-04-15T04:49:32;8.68;;;5.30;;
77359;SDS011;66426;51.454;7.266;2023-04-15T04:50:33;11.05;;;5.95;;
77359;SDS011;66426;51.454;7.266;2023-04-15T04:51:34;10.75;;;5.80;;
77359;SDS011;66426;51.454;7.266;2023-04-15T04:52:36;11.73;;;6.18;;
77359;SDS011;66426;51.454;7.266;2023-04-15T04:53:37;12.80;;;5.82;;
77359;SDS011;66426;51.454;7.266;2023-04-15T04:54:38;10.23;;;5.72;;
77359;SDS011;66426;51.454;7.266;2023-04-15T04:55:39;10.10;;;5.72;;
77359;SDS011;66426;51.454;7.266;2023-04-15T04:56:40;12.05;;;6.32;;
77359;SDS011;66426;51.454;7.266;2023-04-15T04:57:41;11.25;;;6.13;;
77359;SDS011;66426;51.454;7.266;2023-04-15T04:58:42;12.38;;;5.85;;
77359;SDS011;66426;51.454;7.266;2023-04-15T04:59:42;10.63;;;5.53;;
77359;SDS011;66426;51.454;7.266;2023-04-15T05:00:44;12.13;;;5.65;;
77359;SDS011;66426;51.454;7.266;2023-04-15T05:01:45;14.25;;;6.22;;
77359;SDS011;66426;51.454;7.266;2023-04-15T05:02:46;10.15;;;5.57;;
77359;SDS011;66426;51.454;7.266;2023-04-15T05:03:47;11.27;;;6.40;;
77359;SDS011;66426;51.454;7.266;2023-04-15T05:04:48;15.73;;;6.22;;
77359;SDS011;66426;51.454;7.266;2023-04-15T05:05:51;9.98;;;5.32;;
77359;SDS011;66426;51.454;7.266;2023-04-15T05:06:52;11.20;;;5.70;;
77359;SDS011;66426;51.454;7.266;2023-04-15T05:07:53;9.95;;;5.40;;
77359;SDS011;66426;51.454;7.266;2023-04-15T05:08:53;9.27;;;5.53;;
77359;SDS011;66426;51.454;7.266;2023-04-15T05:09:55;9.85;;;5.68;;
77359;SDS011;66426;51.454;7.266;2023-04-15T05:10:56;9.05;;;5.70;;
77359;SDS011;66426;51.454;7.266;2023-04-15T05:11:57;10.60;;;6.15;;
77359;SDS011;66426;51.454;7.266;2023-04-15T05:12:58;9.85;;;5.72;;
77359;SDS011;66426;51.454;7.266;2023-04-15T05:13:59;10.95;;;5.85;;
77359;SDS011;66426;51.454;7.266;2023-04-15T05:15:01;9.50;;;5.43;;
77359;SDS011;66426;51.454;7.266;2023-04-15T05:16:04;8.90;;;5.78;;
77359;SDS011;66426;51.454;7.266;2023-04-15T05:17:05;10.20;;;5.55;;
77359;SDS011;66426;51.454;7.266;2023-04-15T05:18:06;9.02;;;5.72;;
77359;SDS011;66426;51.454;7.266;2023-04-15T05:19:07;9.40;;;5.57;;
77359;SDS011;66426;51.454;7.266;2023-04-15T05:20:09;9.25;;;5.88;;
77359;SDS011;66426;51.454;7.266;2023-04-15T05:21:11;9.80;;;6.25;;
77359;SDS011;66426;51.454;7.266;2023-04-15T05:22:12;10.73;;;5.68;;
77359;SDS011;66426;51.454;7.266;2023-04-15T05:23:13;9.82;;;5.15;;
77359;SDS011;66426;51.454;7.266;2023-04-15T05:24:13;9.13;;;5.47;;
77359;SDS011;66426;51.454;7.266;2023-04-15T05:25:14;11.07;;;6.07;;
77359;SDS011;66426;51.454;7.266;2023-04-15T05:26:16;9.15;;;5.80;;
77359;SDS011;66426;51.454;7.266;2023-04-15T05:27:17;11.57;;;6.07;;
77359;SDS011;66426;51.454;7.266;2023-04-15T05:28:18;9.70;;;5.90;;
77359;SDS011;66426;51.454;7.266;2023-04-15T05:29:19;11.02;;;5.65;;
77359;SDS011;66426;51.454;7.266;2023-04-15T05:30:20;11.25;;;5.65;;
77359;SDS011;66426;51.454;7.266;2023-04-15T05:31:22;11.55;;;5.63;;
77359;SDS011;66426;51.454;7.266;2023-04-15T05:32:23;11.93;;;6.22;;
77359;SDS011;66426;51.454;7.266;2023-04-15T05:33:24;10.70;;;5.38;;
77359;SDS011;66426;51.454;7.266;2023-04-15T05:34:25;10.23;;;6.07;;
77359;SDS011;66426;51.454;7.266;2023-04-15T05:35:26;9.27;;;5.65;;
77359;SDS011;66426;51.454;7.266;2023-04-15T05:36:27;11.07;;;6.07;;
77359;SDS011;66426;51.454;7.266;2023-04-15T05:37:28;12.52;;;5.95;;
77359;SDS011;66426;51.454;7.266;2023-04-15T05:38:29;10.93;;;5.95;;
77359;SDS011;66426;51.454;7.266;2023-04-15T05:39:30;8.68;;;5.50;;
77359;SDS011;66426;51.454;7.266;2023-04-15T05:40:32;12.35;;;6.15;;
77359;SDS011;66426;51.454;7.266;2023-04-15T05:41:33;10.52;;;5.90;;
77359;SDS011;66426;51.454;7.266;2023-04-15T05:42:34;10.00;;;5.95;;
77359;SDS011;66426;51.454;7.266;2023-04-15T05:43:35;9.85;;;6.20;;
77359;SDS011;66426;51.454;7.266;2023-04-15T05:44:36;10.23;;;5.90;;
77359;SDS011;66426;51.454;7.266;2023-04-15T05:45:37;8.73;;;5.50;;
77359;SDS011;66426;51.454;7.266;2023-04-15T05:46:39;10.90;;;6.15;;
77359;SDS011;66426;51.454;7.266;2023-04-15T05:47:41;13.35;;;6.10;;
77359;SDS011;66426;51.454;7.266;2023-04-15T05:48:42;11.18;;;6.07;;
77359;SDS011;66426;51.454;7.266;2023-04-15T05:49:43;12.20;;;5.85;;
77359;SDS011;66426;51.454;7.266;2023-04-15T05:50:45;9.18;;;5.95;;
77359;SDS011;66426;51.454;7.266;2023-04-15T05:51:46;14.77;;;6.10;;
77359;SDS011;66426;51.454;7.266;2023-04-15T05:52:47;10.82;;;5.70;;
77359;SDS011;66426;51.454;7.266;2023-04-15T05:53:48;11.43;;;5.80;;
77359;SDS011;66426;51.454;7.266;2023-04-15T05:54:49;13.07;;;6.00;;
77359;SDS011;66426;51.454;7.266;2023-04-15T05:55:51;10.90;;;6.25;;
77359;SDS011;66426;51.454;7.266;2023-04-15T05:56:52;10.30;;;5.88;;
77359;SDS011;66426;51.454;7.266;2023-04-15T05:57:53;13.20;;;6.25;;
77359;SDS011;66426;51.454;7.266;2023-04-15T05:58:54;13.23;;;6.25;;
77359;SDS011;66426;51.454;7.266;2023-04-15T05:59:55;13.60;;;6.10;;
77359;SDS011;66426;51.454;7.266;2023-04-15T06:00:57;12.80;;;6.20;;
77359;SDS011;66426;51.454;7.266;2023-04-15T06:01:59;13.68;;;6.63;;
77359;SDS011;66426;51.454;7.266;2023-04-15T06:03:00;12.43;;;6.13;;
77359;SDS011;66426;51.454;7.266;2023-04-15T06:04:02;13.85;;;6.35;;
77359;SDS011;66426;51.454;7.266;2023-04-15T06:05:02;11.55;;;6.65;;
77359;SDS011;66426;51.454;7.266;2023-04-15T06:06:04;10.48;;;6.20;;